createdAt,value
2019-01-26T00:00:51.624Z,-3.26
2019-01-26T00:02:01.601Z,-3.26
2019-01-26T00:03:11.580Z,-3.19
2019-01-26T00:04:21.608Z,-3.27
2019-01-26T00:05:31.594Z,-3.22
2019-01-26T00:06:41.575Z,-3.29
2019-01-26T00:07:51.223Z,-3.2
2019-01-26T00:09:01.215Z,-3.27
2019-01-26T00:10:11.292Z,-3.26
2019-01-26T00:11:21.271Z,-3.26
2019-01-26T00:12:31.276Z,-3.11
2019-01-26T00:13:41.255Z,-3.2
2019-01-26T00:14:51.254Z,-3.09
2019-01-26T00:16:01.230Z,-3.22
2019-01-26T00:17:11.215Z,-3.14
2019-01-26T00:18:22.616Z,-3.15
2019-01-26T00:19:32.594Z,-3.11
2019-01-26T00:20:42.573Z,-3.19
2019-01-26T00:21:52.549Z,-3.11
2019-01-26T00:23:02.529Z,-3.2
2019-01-26T00:24:12.261Z,-3.17
2019-01-26T00:25:22.235Z,-3.22
2019-01-26T00:26:36.219Z,-3.17
2019-01-26T00:27:46.415Z,-3.11
2019-01-26T00:28:56.403Z,-3.2
2019-01-26T00:30:06.383Z,-3.23
2019-01-26T00:31:16.145Z,-3.12
2019-01-26T00:32:26.123Z,-3.08
2019-01-26T00:33:36.151Z,-3.11
2019-01-26T00:34:50.820Z,-3.02
2019-01-26T00:36:00.801Z,-3.14
2019-01-26T00:37:10.782Z,-3.11
2019-01-26T00:38:20.761Z,-3.11
2019-01-26T00:39:45.380Z,-3.05
2019-01-26T00:40:55.362Z,-3.05
2019-01-26T00:42:05.336Z,-3.11
2019-01-26T00:43:15.346Z,-3.15
2019-01-26T00:44:25.332Z,-3.07
2019-01-26T00:45:35.356Z,-3.14
2019-01-26T00:46:45.331Z,-3.05
2019-01-26T00:47:55.305Z,-3.14
2019-01-26T00:49:05.281Z,-3.27
2019-01-26T00:50:15.257Z,-3.27
2019-01-26T00:51:25.286Z,-3.23
2019-01-26T00:52:35.263Z,-3.26
2019-01-26T00:53:45.241Z,-3.33
2019-01-26T00:54:55.224Z,-3.32
2019-01-26T00:56:05.202Z,-3.37
2019-01-26T00:57:15.283Z,-3.37
2019-01-26T00:58:28.335Z,-3.27
2019-01-26T00:59:38.314Z,-3.29
2019-01-26T01:00:48.297Z,-3.36
2019-01-26T01:01:58.277Z,-3.3
2019-01-26T01:03:08.316Z,-3.32
2019-01-26T01:04:17.976Z,-3.38
2019-01-26T01:05:27.960Z,-3.37
2019-01-26T01:06:37.969Z,-3.4
2019-01-26T01:07:48.080Z,-3.4
2019-01-26T01:08:58.363Z,-3.43
2019-01-26T01:10:08.339Z,-3.46
2019-01-26T01:11:18.319Z,-3.53
2019-01-26T01:12:28.301Z,-3.56
2019-01-26T01:13:38.284Z,-3.62
2019-01-26T01:14:49.293Z,-3.55
2019-01-26T01:15:59.275Z,-3.64
2019-01-26T01:17:09.252Z,-3.58
2019-01-26T01:18:19.229Z,-3.55
2019-01-26T01:19:29.210Z,-3.59
2019-01-26T01:20:39.240Z,-3.56
2019-01-26T01:21:49.385Z,-3.61
2019-01-26T01:22:59.524Z,-3.61
2019-01-26T01:24:09.507Z,-3.59
2019-01-26T01:25:19.526Z,-3.69
2019-01-26T01:26:29.326Z,-3.65
2019-01-26T01:27:39.306Z,-3.65
2019-01-26T01:28:49.316Z,-3.66
2019-01-26T01:29:59.293Z,-3.64
2019-01-26T01:31:09.277Z,-3.65
2019-01-26T01:32:19.403Z,-3.55
2019-01-26T01:33:29.382Z,-3.58
2019-01-26T01:34:39.383Z,-3.61
2019-01-26T01:35:49.492Z,-3.59
2019-01-26T01:36:59.219Z,-3.48
2019-01-26T01:38:08.992Z,-3.51
2019-01-26T01:39:19.042Z,-3.58
2019-01-26T01:40:29.123Z,-3.53
2019-01-26T01:41:39.107Z,-3.61
2019-01-26T01:42:49.089Z,-3.5
2019-01-26T01:44:00.198Z,-3.47
2019-01-26T01:45:10.178Z,-3.4
2019-01-26T01:46:20.157Z,-3.3
2019-01-26T01:47:30.139Z,-3.19
2019-01-26T01:48:40.154Z,-3.2
2019-01-26T01:49:50.284Z,-3.27
2019-01-26T01:51:00.267Z,-3.23
2019-01-26T01:52:10.269Z,-3.25
2019-01-26T01:53:20.246Z,-3.27
2019-01-26T01:54:30.227Z,-3.27
2019-01-26T01:55:40.070Z,-3.27
2019-01-26T01:56:50.046Z,-3.26
2019-01-26T01:58:00.022Z,-3.27
2019-01-26T01:59:10.018Z,-3.27
2019-01-26T02:00:19.993Z,-3.27
2019-01-26T02:01:29.972Z,-3.22
2019-01-26T02:02:39.958Z,-3.36
2019-01-26T02:03:49.934Z,-3.4
2019-01-26T02:04:59.911Z,-3.41
2019-01-26T02:06:09.890Z,-3.38
2019-01-26T02:07:19.919Z,-3.4
2019-01-26T02:08:29.896Z,-3.4
2019-01-26T02:09:39.876Z,-3.41
2019-01-26T02:10:49.868Z,-3.44
2019-01-26T02:11:59.855Z,-3.46
2019-01-26T02:13:09.933Z,-3.47
2019-01-26T02:14:19.917Z,-3.48
2019-01-26T02:15:29.899Z,-3.46
2019-01-26T02:16:39.875Z,-3.58
2019-01-26T02:17:55.397Z,-3.56
2019-01-26T02:19:05.478Z,-3.55
2019-01-26T02:20:30.095Z,-3.62
2019-01-26T02:21:40.078Z,-3.56
2019-01-26T02:22:50.057Z,-3.66
2019-01-26T02:24:00.044Z,-3.66
2019-01-26T02:25:10.080Z,-3.68
2019-01-26T02:26:20.058Z,-3.68
2019-01-26T02:27:30.037Z,-3.69
2019-01-26T02:28:40.057Z,-3.71
2019-01-26T02:29:50.134Z,-3.69
2019-01-26T02:31:00.111Z,-3.66
2019-01-26T02:32:10.106Z,-3.75
2019-01-26T02:33:20.090Z,-3.8
2019-01-26T02:34:30.085Z,-3.8
2019-01-26T02:35:40.187Z,-3.78
2019-01-26T02:36:50.166Z,-3.74
2019-01-26T02:38:00.149Z,-3.78
2019-01-26T02:39:10.130Z,-3.81
2019-01-26T02:40:20.110Z,-3.77
2019-01-26T02:41:30.203Z,-3.78
2019-01-26T02:42:40.190Z,-3.78
2019-01-26T02:43:50.172Z,-3.9
2019-01-26T02:45:00.179Z,-3.83
2019-01-26T02:46:10.176Z,-3.88
2019-01-26T02:47:20.256Z,-3.75
2019-01-26T02:48:30.236Z,-3.88
2019-01-26T02:49:40.219Z,-3.85
2019-01-26T02:50:50.198Z,-3.77
2019-01-26T02:52:00.176Z,-3.8
2019-01-26T02:53:10.311Z,-3.85
2019-01-26T02:54:20.287Z,-3.81
2019-01-26T02:55:44.904Z,-3.84
2019-01-26T02:56:54.883Z,-3.91
2019-01-26T02:58:04.895Z,-3.84
2019-01-26T02:59:14.988Z,-3.81
2019-01-26T03:00:25.042Z,-3.83
2019-01-26T03:01:35.037Z,-3.9
2019-01-26T03:02:45.020Z,-3.91
2019-01-26T03:03:55.848Z,-3.87
2019-01-26T03:05:05.844Z,-3.85
2019-01-26T03:06:16.957Z,-3.85
2019-01-26T03:07:26.691Z,-3.88
2019-01-26T03:08:36.683Z,-3.9
2019-01-26T03:09:46.776Z,-3.85
2019-01-26T03:10:56.764Z,-3.9
2019-01-26T03:12:06.742Z,-3.88
2019-01-26T03:13:16.732Z,-3.88
2019-01-26T03:14:26.474Z,-3.94
2019-01-26T03:15:36.622Z,-3.94
2019-01-26T03:16:46.941Z,-3.84
2019-01-26T03:17:56.921Z,-4.05
2019-01-26T03:19:06.918Z,-3.85
2019-01-26T03:20:16.895Z,-3.85
2019-01-26T03:21:26.933Z,-3.91
2019-01-26T03:22:36.908Z,-3.95
2019-01-26T03:23:46.886Z,-3.84
2019-01-26T03:24:56.874Z,-3.87
2019-01-26T03:26:06.869Z,-3.85
2019-01-26T03:27:16.959Z,-3.85
2019-01-26T03:28:26.946Z,-3.84
2019-01-26T03:29:36.928Z,-3.87
2019-01-26T03:30:46.917Z,-3.87
2019-01-26T03:31:56.928Z,-3.74
2019-01-26T03:33:07.053Z,-3.68
2019-01-26T03:34:17.048Z,-3.71
2019-01-26T03:35:27.033Z,-3.68
2019-01-26T03:36:37.013Z,-3.71
2019-01-26T03:37:47.014Z,-3.71
2019-01-26T03:38:59.446Z,-3.66
2019-01-26T03:40:09.436Z,-3.69
2019-01-26T03:41:19.422Z,-3.71
2019-01-26T03:42:29.407Z,-3.8
2019-01-26T03:43:39.398Z,-3.78
2019-01-26T03:45:04.057Z,-3.84
2019-01-26T03:46:14.033Z,-3.75
2019-01-26T03:47:24.011Z,-3.8
2019-01-26T03:48:34.005Z,-3.75
2019-01-26T03:49:44.002Z,-3.81
2019-01-26T03:50:54.083Z,-3.83
2019-01-26T03:52:04.064Z,-3.87
2019-01-26T03:53:14.049Z,-3.83
2019-01-26T03:54:24.052Z,-3.77
2019-01-26T03:55:34.030Z,-3.75
2019-01-26T03:56:44.164Z,-3.66
2019-01-26T03:57:54.158Z,-3.71
2019-01-26T03:59:04.145Z,-3.66
2019-01-26T04:00:14.140Z,-3.71
2019-01-26T04:01:24.143Z,-3.74
2019-01-26T04:02:34.233Z,-3.75
2019-01-26T04:03:44.216Z,-3.65
2019-01-26T04:04:54.202Z,-3.78
2019-01-26T04:06:04.199Z,-3.75
2019-01-26T04:07:14.179Z,-3.75
2019-01-26T04:08:24.261Z,-3.84
2019-01-26T04:09:34.247Z,-3.87
2019-01-26T04:10:44.248Z,-3.77
2019-01-26T04:11:54.259Z,-3.81
2019-01-26T04:13:04.248Z,-3.85
2019-01-26T04:14:14.347Z,-3.88
2019-01-26T04:15:24.344Z,-3.9
2019-01-26T04:16:34.074Z,-3.88
2019-01-26T04:17:44.068Z,-3.88
2019-01-26T04:18:53.797Z,-3.9
2019-01-26T04:20:03.561Z,-3.98
2019-01-26T04:21:13.315Z,-3.98
2019-01-26T04:22:23.304Z,-3.95
2019-01-26T04:23:33.031Z,-3.95
2019-01-26T04:24:43.023Z,-3.95
2019-01-26T04:25:53.118Z,-4.01
2019-01-26T04:27:03.109Z,-4.01
2019-01-26T04:28:13.091Z,-3.99
2019-01-26T04:29:23.074Z,-4.02
2019-01-26T04:30:33.063Z,-4.02
2019-01-26T04:31:43.153Z,-3.99
2019-01-26T04:32:53.168Z,-4.04
2019-01-26T04:34:03.163Z,-3.91
2019-01-26T04:35:13.167Z,-3.88
2019-01-26T04:36:23.157Z,-3.95
2019-01-26T04:37:33.135Z,-3.9
2019-01-26T04:38:43.155Z,-4.04
2019-01-26T04:39:52.900Z,-4.01
2019-01-26T04:41:02.892Z,-3.9
2019-01-26T04:42:12.869Z,-3.96
2019-01-26T04:43:22.955Z,-3.9
2019-01-26T04:44:32.951Z,-3.96
2019-01-26T04:45:42.928Z,-4.02
2019-01-26T04:46:52.914Z,-3.88
2019-01-26T04:48:02.920Z,-3.91
2019-01-26T04:49:13.046Z,-3.96
2019-01-26T04:50:23.040Z,-3.88
2019-01-26T04:51:33.018Z,-4.01
2019-01-26T04:52:43.007Z,-3.9
2019-01-26T04:53:52.999Z,-3.9
2019-01-26T04:55:03.040Z,-3.84
2019-01-26T04:56:13.066Z,-3.96
2019-01-26T04:57:22.796Z,-3.87
2019-01-26T04:58:32.776Z,-3.83
2019-01-26T04:59:42.752Z,-3.9
2019-01-26T05:00:52.794Z,-3.88
2019-01-26T05:02:02.781Z,-3.95
2019-01-26T05:03:12.760Z,-4.01
2019-01-26T05:04:22.759Z,-4.06
2019-01-26T05:05:32.738Z,-3.9
2019-01-26T05:06:42.762Z,-3.94
2019-01-26T05:07:52.757Z,-3.87
2019-01-26T05:09:02.745Z,-4.05
2019-01-26T05:10:12.746Z,-3.95
2019-01-26T05:11:22.729Z,-3.99
2019-01-26T05:12:32.765Z,-3.85
2019-01-26T05:13:42.754Z,-3.96
2019-01-26T05:14:52.739Z,-3.95
2019-01-26T05:16:02.725Z,-3.98
2019-01-26T05:17:12.454Z,-3.95
2019-01-26T05:18:22.234Z,-3.95
2019-01-26T05:19:32.216Z,-3.94
2019-01-26T05:20:42.198Z,-3.88
2019-01-26T05:21:51.682Z,-3.94
2019-01-26T05:23:01.671Z,-3.94
2019-01-26T05:24:11.710Z,-3.96
2019-01-26T05:25:21.697Z,-3.91
2019-01-26T05:26:46.316Z,-3.88
2019-01-26T05:27:56.295Z,-3.96
2019-01-26T05:29:06.273Z,-3.87
2019-01-26T05:30:16.358Z,-3.85
2019-01-26T05:31:26.344Z,-3.88
2019-01-26T05:32:36.096Z,-3.88
2019-01-26T05:33:46.085Z,-3.88
2019-01-26T05:34:56.151Z,-3.95
2019-01-26T05:36:06.137Z,-3.96
2019-01-26T05:37:16.124Z,-3.94
2019-01-26T05:38:26.103Z,-3.9
2019-01-26T05:39:36.089Z,-3.95
2019-01-26T05:40:46.119Z,-4.02
2019-01-26T05:41:56.101Z,-3.95
2019-01-26T05:43:06.084Z,-3.99
2019-01-26T05:44:16.064Z,-4.01
2019-01-26T05:45:25.770Z,-3.87
2019-01-26T05:46:35.902Z,-3.95
2019-01-26T05:47:52.360Z,-3.94
2019-01-26T05:49:02.340Z,-3.98
2019-01-26T05:50:12.322Z,-4.04
2019-01-26T05:51:22.304Z,-3.9
2019-01-26T05:52:32.395Z,-4.02
2019-01-26T05:53:42.377Z,-3.96
2019-01-26T05:54:52.355Z,-4.01
2019-01-26T05:56:02.342Z,-3.98
2019-01-26T05:57:12.324Z,-4.02
2019-01-26T05:58:22.354Z,-4.01
2019-01-26T05:59:32.327Z,-4.08
2019-01-26T06:00:42.329Z,-4.01
2019-01-26T06:01:52.311Z,-3.98
2019-01-26T06:03:02.292Z,-3.99
2019-01-26T06:04:12.064Z,-3.88
2019-01-26T06:05:22.045Z,-4.02
2019-01-26T06:06:32.026Z,-4.02
2019-01-26T06:07:42.008Z,-3.88
2019-01-26T06:08:51.778Z,-3.88
2019-01-26T06:10:01.803Z,-3.9
2019-01-26T06:11:11.791Z,-3.81
2019-01-26T06:12:21.773Z,-3.85
2019-01-26T06:13:31.755Z,-3.77
2019-01-26T06:14:41.743Z,-3.69
2019-01-26T06:15:51.792Z,-3.71
2019-01-26T06:17:01.775Z,-3.66
2019-01-26T06:18:11.756Z,-3.64
2019-01-26T06:19:22.368Z,-3.62
2019-01-26T06:20:32.346Z,-3.58
2019-01-26T06:21:42.375Z,-3.68
2019-01-26T06:22:52.351Z,-3.62
2019-01-26T06:24:02.339Z,-3.51
2019-01-26T06:25:12.335Z,-3.66
2019-01-26T06:26:22.315Z,-3.62
2019-01-26T06:27:32.338Z,-3.64
2019-01-26T06:28:42.317Z,-3.71
2019-01-26T06:29:52.297Z,-3.68
2019-01-26T06:31:02.282Z,-3.69
2019-01-26T06:32:12.262Z,-3.71
2019-01-26T06:33:22.240Z,-3.75
2019-01-26T06:34:32.225Z,-3.83
2019-01-26T06:35:42.208Z,-3.77
2019-01-26T06:36:52.200Z,-3.81
2019-01-26T06:38:02.175Z,-3.83
2019-01-26T06:39:12.300Z,-3.85
2019-01-26T06:40:22.281Z,-3.78
2019-01-26T06:41:32.255Z,-3.69
2019-01-26T06:42:42.241Z,-3.74
2019-01-26T06:43:52.219Z,-3.69
2019-01-26T06:45:02.247Z,-3.65
2019-01-26T06:46:12.223Z,-3.58
2019-01-26T06:47:22.205Z,-3.62
2019-01-26T06:48:32.178Z,-3.58
2019-01-26T06:49:42.155Z,-3.48
2019-01-26T06:50:52.229Z,-3.46
2019-01-26T06:52:02.205Z,-3.48
2019-01-26T06:53:12.183Z,-3.53
2019-01-26T06:54:22.161Z,-3.55
2019-01-26T06:55:32.139Z,-3.58
2019-01-26T06:56:42.221Z,-3.64
2019-01-26T06:57:52.196Z,-3.66
2019-01-26T06:59:02.174Z,-3.68
2019-01-26T07:00:12.162Z,-3.75
2019-01-26T07:01:22.142Z,-3.75
2019-01-26T07:02:32.219Z,-3.75
2019-01-26T07:03:42.205Z,-3.66
2019-01-26T07:04:53.722Z,-3.69
2019-01-26T07:06:03.708Z,-3.71
2019-01-26T07:07:13.685Z,-3.64
2019-01-26T07:08:23.722Z,-3.61
2019-01-26T07:09:33.706Z,-3.56
2019-01-26T07:10:43.693Z,-3.5
2019-01-26T07:11:53.674Z,-3.58
2019-01-26T07:13:03.656Z,-3.44
2019-01-26T07:14:13.740Z,-3.48
2019-01-26T07:15:23.395Z,-3.44
2019-01-26T07:16:33.376Z,-3.47
2019-01-26T07:17:43.355Z,-3.44
2019-01-26T07:18:53.334Z,-3.4
2019-01-26T07:20:03.458Z,-3.36
2019-01-26T07:21:13.440Z,-3.38
2019-01-26T07:22:23.425Z,-3.46
2019-01-26T07:23:33.407Z,-3.37
2019-01-26T07:24:43.386Z,-3.41
2019-01-26T07:25:53.410Z,-3.47
2019-01-26T07:27:03.133Z,-3.43
2019-01-26T07:28:13.110Z,-3.47
2019-01-26T07:29:23.086Z,-3.53
2019-01-26T07:30:33.069Z,-3.5
2019-01-26T07:31:43.105Z,-3.43
2019-01-26T07:32:53.083Z,-3.48
2019-01-26T07:34:02.824Z,-3.61
2019-01-26T07:35:12.802Z,-3.53
2019-01-26T07:36:22.778Z,-3.5
2019-01-26T07:37:32.806Z,-3.47
2019-01-26T07:38:42.782Z,-3.48
2019-01-26T07:39:52.759Z,-3.47
2019-01-26T07:41:02.740Z,-3.56
2019-01-26T07:42:12.719Z,-3.56
2019-01-26T07:43:22.762Z,-3.55
2019-01-26T07:44:32.738Z,-3.58
2019-01-26T07:45:42.714Z,-3.64
2019-01-26T07:46:52.692Z,-3.55
2019-01-26T07:48:02.673Z,-3.61
2019-01-26T07:49:14.150Z,-3.51
2019-01-26T07:50:24.134Z,-3.46
2019-01-26T07:51:34.111Z,-3.59
2019-01-26T07:52:44.089Z,-3.61
2019-01-26T07:53:54.070Z,-3.64
2019-01-26T07:55:04.097Z,-3.56
2019-01-26T07:56:14.072Z,-3.59
2019-01-26T07:57:24.064Z,-3.5
2019-01-26T07:58:34.041Z,-3.5
2019-01-26T07:59:44.018Z,-3.47
2019-01-26T08:00:54.126Z,-3.5
2019-01-26T08:02:04.110Z,-3.48
2019-01-26T08:03:14.088Z,-3.58
2019-01-26T08:04:24.070Z,-3.56
2019-01-26T08:05:34.045Z,-3.64
2019-01-26T08:06:44.025Z,-3.59
2019-01-26T08:07:54.003Z,-3.56
2019-01-26T08:09:03.984Z,-3.68
2019-01-26T08:10:13.961Z,-3.66
2019-01-26T08:11:23.937Z,-3.71
2019-01-26T08:12:33.918Z,-3.69
2019-01-26T08:13:43.897Z,-3.81
2019-01-26T08:14:53.876Z,-3.84
2019-01-26T08:16:03.856Z,-3.95
2019-01-26T08:17:13.591Z,-3.91
2019-01-26T08:18:28.617Z,-3.94
2019-01-26T08:19:40.024Z,-3.9
2019-01-26T08:20:50.116Z,-4.01
2019-01-26T08:22:00.104Z,-3.88
2019-01-26T08:23:10.097Z,-3.91
2019-01-26T08:24:20.179Z,-3.85
2019-01-26T08:25:30.169Z,-3.91
2019-01-26T08:28:04.776Z,-3.78
2019-01-26T08:29:14.754Z,-3.88
2019-01-26T08:30:24.786Z,-3.83
2019-01-26T08:31:34.814Z,-3.85
2019-01-26T08:32:44.789Z,-3.88
2019-01-26T08:33:54.777Z,-3.88
2019-01-26T08:35:04.761Z,-3.95
2019-01-26T08:36:14.486Z,-3.88
2019-01-26T08:37:24.462Z,-3.88
2019-01-26T08:38:34.441Z,-3.94
2019-01-26T08:39:44.423Z,-3.83
2019-01-26T08:40:54.172Z,-3.84
2019-01-26T08:42:04.148Z,-3.81
2019-01-26T08:43:13.877Z,-3.87
2019-01-26T08:44:23.857Z,-3.9
2019-01-26T08:45:33.836Z,-3.83
2019-01-26T08:46:43.912Z,-3.9
2019-01-26T08:47:54.877Z,-3.85
2019-01-26T08:49:04.856Z,-3.95
2019-01-26T08:50:16.477Z,-3.87
2019-01-26T08:51:26.456Z,-3.87
2019-01-26T08:52:36.487Z,-3.87
2019-01-26T08:53:46.466Z,-3.71
2019-01-26T08:54:56.448Z,-3.75
2019-01-26T08:56:06.424Z,-3.69
2019-01-26T08:57:16.403Z,-3.71
2019-01-26T08:58:26.376Z,-3.69
2019-01-26T08:59:36.350Z,-3.68
2019-01-26T09:00:46.331Z,-3.74
2019-01-26T09:03:20.923Z,-3.66
2019-01-26T09:04:30.996Z,-3.74
2019-01-26T09:05:40.975Z,-3.65
2019-01-26T09:06:50.969Z,-3.62
2019-01-26T09:08:00.945Z,-3.58
2019-01-26T09:09:11.021Z,-3.55
2019-01-26T09:10:21.003Z,-3.58
2019-01-26T09:11:30.985Z,-3.61
2019-01-26T09:12:40.965Z,-3.51
2019-01-26T09:13:50.946Z,-3.44
2019-01-26T09:15:01.026Z,-3.47
2019-01-26T09:16:11.006Z,-3.51
2019-01-26T09:17:21.014Z,-3.51
2019-01-26T09:18:31.008Z,-3.47
2019-01-26T09:19:46.599Z,-3.47
2019-01-26T09:20:56.704Z,-3.4
2019-01-26T09:22:06.685Z,-3.37
2019-01-26T09:23:16.665Z,-3.37
2019-01-26T09:24:26.642Z,-3.3
2019-01-26T09:25:38.245Z,-3.43
2019-01-26T09:26:48.222Z,-3.32
2019-01-26T09:27:58.203Z,-3.33
2019-01-26T09:29:08.188Z,-3.36
2019-01-26T09:30:18.170Z,-3.36
2019-01-26T09:31:28.166Z,-3.22
2019-01-26T09:32:38.145Z,-3.14
2019-01-26T09:33:48.121Z,-3.05
2019-01-26T09:34:58.101Z,-3.11
2019-01-26T09:36:08.188Z,-3.14
2019-01-26T09:37:18.176Z,-3.09
2019-01-26T09:38:28.203Z,-3.09
2019-01-26T09:39:38.184Z,-3.12
2019-01-26T09:40:49.647Z,-3.04
2019-01-26T09:41:59.669Z,-3.09
2019-01-26T09:43:09.647Z,-3.08
2019-01-26T09:44:19.632Z,-3.07
2019-01-26T09:45:29.615Z,-3.08
2019-01-26T09:46:39.595Z,-3.12
2019-01-26T09:47:49.575Z,-3.09
2019-01-26T09:48:59.550Z,-3.05
2019-01-26T09:50:09.528Z,-3.02
2019-01-26T09:51:19.505Z,-3.07
2019-01-26T09:52:29.489Z,-3.05
2019-01-26T09:53:39.469Z,-3.08
2019-01-26T09:54:49.447Z,-3.04
2019-01-26T09:55:59.548Z,-3.11
2019-01-26T09:57:09.526Z,-3.04
2019-01-26T09:58:20.013Z,-3.02
2019-01-26T09:59:30.090Z,-3.01
2019-01-26T10:00:40.071Z,-3.11
2019-01-26T10:01:49.897Z,-3.14
2019-01-26T10:02:59.882Z,-3.11
2019-01-26T10:04:09.898Z,-3.08
2019-01-26T10:05:19.876Z,-3.04
2019-01-26T10:06:29.855Z,-3.07
2019-01-26T10:07:39.934Z,-3.08
2019-01-26T10:08:49.915Z,-3.08
2019-01-26T10:09:59.893Z,-3.05
2019-01-26T10:11:10.205Z,-3.05
2019-01-26T10:12:20.186Z,-3.05
2019-01-26T10:13:30.216Z,-3.05
2019-01-26T10:14:40.200Z,-2.98
2019-01-26T10:15:50.219Z,-2.99
2019-01-26T10:17:00.211Z,-2.93
2019-01-26T10:18:10.194Z,-3.01
2019-01-26T10:19:20.278Z,-2.96
2019-01-26T10:20:30.257Z,-2.87
2019-01-26T10:21:40.234Z,-2.91
2019-01-26T10:22:50.216Z,-2.9
2019-01-26T10:24:00.205Z,-2.8
2019-01-26T10:25:10.296Z,-2.89
2019-01-26T10:26:20.279Z,-2.91
2019-01-26T10:27:30.259Z,-2.8
2019-01-26T10:28:40.236Z,-2.8
2019-01-26T10:29:50.213Z,-2.93
2019-01-26T10:31:00.195Z,-2.78
2019-01-26T10:32:10.179Z,-2.83
2019-01-26T10:33:20.171Z,-2.78
2019-01-26T10:34:30.158Z,-2.73
2019-01-26T10:35:40.141Z,-2.62
2019-01-26T10:36:50.222Z,-2.66
2019-01-26T10:38:00.207Z,-2.61
2019-01-26T10:39:10.188Z,-2.5
2019-01-26T10:40:20.171Z,-2.48
2019-01-26T10:41:30.149Z,-2.51
2019-01-26T10:42:40.227Z,-2.44
2019-01-26T10:43:50.205Z,-2.42
2019-01-26T10:45:00.262Z,-2.37
2019-01-26T10:46:10.246Z,-2.4
2019-01-26T10:47:20.222Z,-2.47
2019-01-26T10:48:30.306Z,-2.5
2019-01-26T10:49:40.299Z,-2.45
2019-01-26T10:50:50.280Z,-2.36
2019-01-26T10:52:00.260Z,-2.29
2019-01-26T10:53:10.446Z,-2.29
2019-01-26T10:54:20.569Z,-2.34
2019-01-26T10:55:30.548Z,-2.29
2019-01-26T10:56:40.533Z,-2.32
2019-01-26T10:57:50.508Z,-2.28
2019-01-26T10:59:00.487Z,-2.32
2019-01-26T11:00:10.575Z,-2.25
2019-01-26T11:01:20.557Z,-2.34
2019-01-26T11:02:30.541Z,-2.33
2019-01-26T11:03:40.520Z,-2.32
2019-01-26T11:04:50.496Z,-2.26
2019-01-26T11:06:00.525Z,-2.28
2019-01-26T11:07:10.501Z,-2.22
2019-01-26T11:08:21.161Z,-2.15
2019-01-26T11:09:31.215Z,-2.22
2019-01-26T11:10:41.196Z,-2.2
2019-01-26T11:11:51.278Z,-2.18
2019-01-26T11:13:01.255Z,-2.13
2019-01-26T11:14:11.234Z,-2.08
2019-01-26T11:15:21.211Z,-2.13
2019-01-26T11:16:31.205Z,-2.07
2019-01-26T11:17:41.183Z,-2.08
2019-01-26T11:18:51.766Z,-2
2019-01-26T11:20:01.742Z,-2.02
2019-01-26T11:21:11.722Z,-2.02
2019-01-26T11:22:21.700Z,-1.97
2019-01-26T11:23:31.788Z,-1.81
2019-01-26T11:24:41.773Z,-1.84
2019-01-26T11:25:51.757Z,-1.82
2019-01-26T11:27:02.762Z,-1.76
2019-01-26T11:28:12.746Z,-1.72
2019-01-26T11:29:22.728Z,-1.71
2019-01-26T11:30:32.711Z,-1.69
2019-01-26T11:31:42.366Z,-1.61
2019-01-26T11:32:52.349Z,-1.6
2019-01-26T11:34:02.940Z,-1.48
2019-01-26T11:35:13.026Z,-1.53
2019-01-26T11:36:23.035Z,-1.48
2019-01-26T11:37:33.019Z,-1.45
2019-01-26T11:38:43.009Z,-1.4
2019-01-26T11:39:52.987Z,-1.42
2019-01-26T11:41:03.070Z,-1.38
2019-01-26T11:42:12.733Z,-1.42
2019-01-26T11:43:22.730Z,-1.45
2019-01-26T11:44:32.716Z,-1.42
2019-01-26T11:45:42.704Z,-1.42
2019-01-26T11:46:52.684Z,-1.4
2019-01-26T11:48:02.672Z,-1.35
2019-01-26T11:49:17.592Z,-1.42
2019-01-26T11:50:27.577Z,-1.46
2019-01-26T11:51:37.233Z,-1.5
2019-01-26T11:52:47.317Z,-1.51
2019-01-26T11:53:57.296Z,-1.5
2019-01-26T11:55:07.274Z,-1.53
2019-01-26T11:56:17.255Z,-1.53
2019-01-26T11:57:27.233Z,-1.54
2019-01-26T11:58:37.212Z,-1.58
2019-01-26T11:59:47.197Z,-1.61
2019-01-26T12:01:03.741Z,-1.6
2019-01-26T12:02:13.719Z,-1.57
2019-01-26T12:03:23.700Z,-1.63
2019-01-26T12:04:33.785Z,-1.66
2019-01-26T12:05:43.762Z,-1.63
2019-01-26T12:06:53.755Z,-1.63
2019-01-26T12:08:03.733Z,-1.61
2019-01-26T12:09:13.710Z,-1.68
2019-01-26T12:10:23.690Z,-1.63
2019-01-26T12:11:33.669Z,-1.75
2019-01-26T12:12:43.648Z,-1.66
2019-01-26T12:13:53.628Z,-1.61
2019-01-26T12:15:03.365Z,-1.63
2019-01-26T12:16:13.349Z,-1.72
2019-01-26T12:17:23.077Z,-1.69
2019-01-26T12:18:33.062Z,-1.61
2019-01-26T12:19:43.040Z,-1.68
2019-01-26T12:20:53.033Z,-1.64
2019-01-26T12:22:03.025Z,-1.63
2019-01-26T12:23:13.005Z,-1.66
2019-01-26T12:24:23.960Z,-1.63
2019-01-26T12:25:33.944Z,-1.64
2019-01-26T12:26:43.926Z,-1.64
2019-01-26T12:27:53.664Z,-1.66
2019-01-26T12:29:03.647Z,-1.63
2019-01-26T12:30:13.631Z,-1.66
2019-01-26T12:31:23.620Z,-1.64
2019-01-26T12:32:34.997Z,-1.64
2019-01-26T12:33:44.987Z,-1.66
2019-01-26T12:34:54.970Z,-1.68
2019-01-26T12:36:04.948Z,-1.68
2019-01-26T12:37:14.935Z,-1.69
2019-01-26T12:38:24.918Z,-1.72
2019-01-26T12:39:34.897Z,-1.68
2019-01-26T12:40:44.884Z,-1.66
2019-01-26T12:41:54.867Z,-1.72
2019-01-26T12:43:04.848Z,-1.76
2019-01-26T12:44:14.839Z,-1.72
2019-01-26T12:45:24.819Z,-1.76
2019-01-26T12:46:34.799Z,-1.75
2019-01-26T12:47:44.787Z,-1.74
2019-01-26T12:48:54.789Z,-1.81
2019-01-26T12:50:04.818Z,-1.76
2019-01-26T12:51:14.799Z,-1.75
2019-01-26T12:52:24.786Z,-1.76
2019-01-26T12:53:34.826Z,-1.9
2019-01-26T12:54:44.829Z,-1.79
2019-01-26T12:55:54.809Z,-1.87
2019-01-26T12:57:04.890Z,-1.79
2019-01-26T12:58:14.874Z,-1.82
2019-01-26T12:59:24.863Z,-1.89
2019-01-26T13:00:34.843Z,-1.93
2019-01-26T13:01:44.821Z,-1.94
2019-01-26T13:02:54.908Z,-2.02
2019-01-26T13:04:04.898Z,-1.97
2019-01-26T13:05:14.884Z,-2.02
2019-01-26T13:06:24.865Z,-2.13
2019-01-26T13:07:34.854Z,-2.05
2019-01-26T13:08:44.933Z,-2.15
2019-01-26T13:09:54.913Z,-2.17
2019-01-26T13:11:04.892Z,-2.22
2019-01-26T13:12:14.870Z,-2.2
2019-01-26T13:13:24.853Z,-2.22
2019-01-26T13:14:34.832Z,-2.2
2019-01-26T13:15:44.810Z,-2.2
2019-01-26T13:16:54.791Z,-2.17
2019-01-26T13:18:05.028Z,-2.23
2019-01-26T13:19:15.827Z,-2.17
2019-01-26T13:20:25.870Z,-2.22
2019-01-26T13:21:35.852Z,-2.23
2019-01-26T13:22:45.833Z,-2.15
2019-01-26T13:23:55.812Z,-2.23
2019-01-26T13:25:05.806Z,-2.25
2019-01-26T13:26:15.788Z,-2.28
2019-01-26T13:27:25.768Z,-2.17
2019-01-26T13:28:35.747Z,-2.25
2019-01-26T13:30:00.366Z,-2.26
2019-01-26T13:31:10.351Z,-2.32
2019-01-26T13:32:20.428Z,-2.29
2019-01-26T13:33:30.152Z,-2.25
2019-01-26T13:34:40.130Z,-2.29
2019-01-26T13:35:50.140Z,-2.36
2019-01-26T13:37:00.119Z,-2.32
2019-01-26T13:38:10.096Z,-2.33
2019-01-26T13:39:20.371Z,-2.37
2019-01-26T13:40:30.424Z,-2.26
2019-01-26T13:41:40.404Z,-2.26
2019-01-26T13:42:50.398Z,-2.32
2019-01-26T13:44:00.387Z,-2.36
2019-01-26T13:45:10.429Z,-2.29
2019-01-26T13:46:20.408Z,-2.37
2019-01-26T13:47:30.387Z,-2.36
2019-01-26T13:48:45.655Z,-2.39
2019-01-26T13:50:10.273Z,-2.4
2019-01-26T13:51:20.259Z,-2.48
2019-01-26T13:52:30.254Z,-2.45
2019-01-26T13:53:40.231Z,-2.37
2019-01-26T13:54:50.206Z,-2.34
2019-01-26T13:56:00.188Z,-2.33
2019-01-26T13:57:10.167Z,-2.37
2019-01-26T13:58:20.144Z,-2.47
2019-01-26T13:59:30.227Z,-2.45
2019-01-26T14:00:40.206Z,-2.44
2019-01-26T14:01:50.185Z,-2.39
2019-01-26T14:03:00.165Z,-2.37
2019-01-26T14:04:10.148Z,-2.5
2019-01-26T14:05:20.195Z,-2.52
2019-01-26T14:06:30.171Z,-2.51
2019-01-26T14:07:40.158Z,-2.5
2019-01-26T14:08:50.180Z,-2.62
2019-01-26T14:10:00.196Z,-2.58
2019-01-26T14:11:10.201Z,-2.62
2019-01-26T14:12:20.180Z,-2.7
2019-01-26T14:13:30.159Z,-2.69
2019-01-26T14:14:40.140Z,-2.65
2019-01-26T14:15:50.116Z,-2.78
2019-01-26T14:17:00.150Z,-2.73
2019-01-26T14:18:10.127Z,-2.81
2019-01-26T14:19:20.109Z,-2.89
2019-01-26T14:20:30.094Z,-2.83
2019-01-26T14:21:40.084Z,-2.83
2019-01-26T14:22:50.184Z,-2.9
2019-01-26T14:24:00.181Z,-3.05
2019-01-26T14:25:10.163Z,-2.99
2019-01-26T14:26:20.143Z,-3.01
2019-01-26T14:27:30.119Z,-2.99
2019-01-26T14:28:40.146Z,-3.07
2019-01-26T14:29:50.137Z,-3.07
2019-01-26T14:31:00.132Z,-3.05
2019-01-26T14:32:10.111Z,-3.11
2019-01-26T14:33:20.109Z,-3.15
2019-01-26T14:34:30.190Z,-3.12
2019-01-26T14:35:40.174Z,-3.12
2019-01-26T14:36:50.153Z,-3.22
2019-01-26T14:37:59.876Z,-3.25
2019-01-26T14:39:09.853Z,-3.27
2019-01-26T14:40:19.878Z,-3.29
2019-01-26T14:41:29.858Z,-3.32
2019-01-26T14:42:39.836Z,-3.27
2019-01-26T14:43:49.821Z,-3.41
2019-01-26T14:44:59.803Z,-3.41
2019-01-26T14:46:09.887Z,-3.4
2019-01-26T14:47:19.867Z,-3.36
2019-01-26T14:48:29.856Z,-3.38
2019-01-26T14:49:39.976Z,-3.41
2019-01-26T14:50:50.055Z,-3.4
2019-01-26T14:52:00.139Z,-3.41
2019-01-26T14:53:10.121Z,-3.43
2019-01-26T14:54:34.773Z,-3.47
2019-01-26T14:55:44.759Z,-3.47
2019-01-26T14:56:54.735Z,-3.47
2019-01-26T14:58:04.858Z,-3.44
2019-01-26T14:59:14.838Z,-3.47
2019-01-26T15:00:24.818Z,-3.59
2019-01-26T15:01:34.799Z,-3.61
2019-01-26T15:02:44.884Z,-3.58
2019-01-26T15:03:54.859Z,-3.58
2019-01-26T15:05:04.842Z,-3.61
2019-01-26T15:06:14.820Z,-3.58
2019-01-26T15:07:24.800Z,-3.61
2019-01-26T15:08:34.774Z,-3.58
2019-01-26T15:09:44.749Z,-3.64
2019-01-26T15:10:54.726Z,-3.59